Agartala Airport


Codes: VEAT/IXA
Name: Agartala Airport
City: Agartala
Country: India
Elevation: 46 ft.
Wikipedia:

Photos at Agartala Airport


   Photos courtesy of SpottingLog. You can add your own sightings and photos by signing up for a free trial today.



No photos found.

Weather at Agartala Airport


Time (UTC)DescriptionTempratureWindCloud coverageVisibilityPressureHumidity
15-Apr-2024 18:00Scattered Clouds29°C7 mph, SW49%10000m1008hPa35%
15-Apr-2024 21:00Scattered Clouds28°C4 mph, S44%10000m1008hPa39%
16-Apr-2024 00:00Broken Clouds27°C7 mph, S58%10000m1008hPa44%
16-Apr-2024 03:00Broken Clouds35°C9 mph, S51%10000m1008hPa34%
16-Apr-2024 06:00Broken Clouds41°C13 mph, SW59%10000m1006hPa21%
16-Apr-2024 09:00Light Rain35°C25 mph, SW61%10000m1005hPa38%
16-Apr-2024 12:00Light Rain28°C9 mph, SE65%10000m1005hPa62%
16-Apr-2024 15:00Light Rain27°C9 mph, SE98%10000m1006hPa66%
16-Apr-2024 18:00Overcast Clouds27°C11 mph, S90%10000m1005hPa75%
16-Apr-2024 21:00Overcast Clouds27°C13 mph, S86%10000m1004hPa84%
17-Apr-2024 00:00Broken Clouds27°C11 mph, S66%10000m1005hPa84%
17-Apr-2024 03:00Clear Sky34°C13 mph, S8%10000m1007hPa51%
17-Apr-2024 06:00Clear Sky40°C16 mph, S5%10000m1005hPa32%
17-Apr-2024 09:00Scattered Clouds37°C18 mph, S40%10000m1000hPa35%
17-Apr-2024 12:00Broken Clouds32°C18 mph, S66%10000m1002hPa59%
17-Apr-2024 15:00Overcast Clouds29°C16 mph, S88%10000m1005hPa81%
17-Apr-2024 18:00Broken Clouds28°C16 mph, S84%10000m1005hPa84%
17-Apr-2024 21:00Overcast Clouds28°C13 mph, S97%10000m1004hPa81%
18-Apr-2024 00:00Overcast Clouds28°C11 mph, SE93%10000m1005hPa81%
18-Apr-2024 03:00Broken Clouds34°C16 mph, S68%10000m1006hPa54%
18-Apr-2024 06:00Scattered Clouds40°C16 mph, S37%10000m1003hPa28%
18-Apr-2024 09:00Broken Clouds39°C18 mph, S59%10000m999hPa30%
18-Apr-2024 12:00Scattered Clouds32°C16 mph, S49%10000m1001hPa58%
18-Apr-2024 15:00Clear Sky28°C13 mph, S4%10000m1004hPa82%
18-Apr-2024 18:00Scattered Clouds28°C13 mph, S28%10000m1004hPa83%
18-Apr-2024 21:00Scattered Clouds28°C11 mph, S25%10000m1002hPa81%
19-Apr-2024 00:00Few Clouds28°C11 mph, SE12%10000m1003hPa81%
19-Apr-2024 03:00Scattered Clouds34°C16 mph, S31%10000m1004hPa48%
19-Apr-2024 06:00Few Clouds40°C18 mph, S17%10000m1002hPa31%
19-Apr-2024 09:00Broken Clouds34°C20 mph, S56%10000m999hPa50%
19-Apr-2024 12:00Scattered Clouds31°C20 mph, S30%10000m999hPa64%
19-Apr-2024 15:00Clear Sky29°C20 mph, S1%10000m1002hPa80%
19-Apr-2024 18:00Few Clouds28°C16 mph, S17%10000m1003hPa83%
19-Apr-2024 21:00Light Rain28°C16 mph, S60%10000m1001hPa80%
20-Apr-2024 00:00Light Rain28°C16 mph, S48%10000m1003hPa84%
20-Apr-2024 03:00Light Rain34°C18 mph, S36%10000m1004hPa52%
20-Apr-2024 06:00Few Clouds40°C18 mph, S20%10000m1002hPa31%
20-Apr-2024 09:00Scattered Clouds39°C22 mph, S28%10000m998hPa35%
20-Apr-2024 12:00Few Clouds31°C22 mph, S22%10000m999hPa66%
20-Apr-2024 15:00Clear Sky29°C18 mph, S9%10000m1002hPa80%